Skip to main content

NOAA/GLERL Met Station at Muskegon, MI

Previous 3 Hours (2 minute increments)
See also Previous 5 Days (top of hour)
Jump down to Data
Switch to [English][Metric]
Zoom: Click and drag, Pan: shift-click and drag, Unzoom: double-click, Unzoom All






See also 1-day windrose plot


NOAA/GLERL Met Station at Muskegon, MI

Previous 3 Hours (2 minute increments)
See also Previous 5 Days (top of hour only)
Jump up to Graphs
Switch to [English][Metric]
                  Wind  Wind  Wind   Air   Dew   Rel     Sta   PAR
                   Spd   Gst   Dir  Temp    Pt   Hum    Pres uE/m2/
YYYY-MM-DD   EST   kts   kts   deg     F     F     %   in Hg   sec
2017-11-22 18:30  10.7  13.0   265  32.5  24.3  71.3   29.60     2
2017-11-22 18:28   9.1  10.7   265  32.5  24.6  72.3   29.60     2
2017-11-22 18:26  10.3  12.1   277  32.5  24.5  72.1   29.60     2
2017-11-22 18:24   8.7  10.7   283  32.5  24.1  70.8   29.60     2
2017-11-22 18:22   8.4  11.1   273  32.4  23.1  68.3   29.60     2
2017-11-22 18:20   8.9  10.3   253  32.4  23.5  69.5   29.60     2
2017-11-22 18:18   7.6   9.1   269  32.5  23.9  70.3   29.60     2
2017-11-22 18:16   7.6   8.9   262  32.5  23.8  70.0   29.60     2
2017-11-22 18:14   8.7  10.1   269  32.5  23.7  69.7   29.60     2
2017-11-22 18:12   9.9  11.7   265  32.4  23.7  70.0   29.60     2
2017-11-22 18:10   8.9  10.1   274  32.5  24.2  71.1   29.60     2
2017-11-22 18:08   7.6   9.7   273  32.4  23.9  70.8   29.59     2
2017-11-22 18:06   7.4   8.6   260  32.4  23.7  70.0   29.60     2
2017-11-22 18:04   9.5  10.7   263  32.4  23.7  70.0   29.60     2
2017-11-22 18:02   9.3  10.5   258  32.4  24.0  71.0   29.60     2
2017-11-22 18:00   8.9  10.3   272  32.2  23.5  70.1   29.60     2
2017-11-22 17:58   7.8   9.9   276  32.2  23.4  69.8   29.60     2
2017-11-22 17:56   8.0   9.7   271  32.2  23.2  69.2   29.60     2
2017-11-22 17:54   6.4   7.6   261  32.2  23.1  68.8   29.60     2
2017-11-22 17:52   8.6   9.5   255  32.4  23.2  68.7   29.60     2
2017-11-22 17:50  10.1  11.5   259  32.4  23.5  69.6   29.60     2
2017-11-22 17:48   9.3  11.5   260  32.2  23.5  69.9   29.60     2
2017-11-22 17:46   8.9  10.3   275  32.4  23.6  69.7   29.60     2
2017-11-22 17:44   5.4   6.6   258  32.4  23.5  69.5   29.60     2
2017-11-22 17:42   8.0  10.3   257  32.4  23.3  68.9   29.60     2
2017-11-22 17:40   9.3  10.7   276  32.4  23.6  69.7   29.60     2
2017-11-22 17:38   9.1  11.9   264  32.2  23.2  69.2   29.60     2
2017-11-22 17:36   6.8  12.4   284  32.2  22.7  67.6   29.60     3
2017-11-22 17:34   7.0   8.0   280  32.2  23.0  68.6   29.60     3
2017-11-22 17:32   7.0   8.2   271  32.2  22.8  68.0   29.60     3
2017-11-22 17:30   8.4   9.9   268  32.2  22.9  68.3   29.60     4
2017-11-22 17:28   8.6   9.5   267  32.2  22.7  67.8   29.60     5
2017-11-22 17:26   7.4   9.1   272  32.2  22.3  66.7   29.60     6
2017-11-22 17:24   7.6   8.6   269  32.2  22.3  66.5   29.60     6
2017-11-22 17:22   7.0   8.2   263  32.2  22.1  66.1   29.60     7
2017-11-22 17:20   7.6   8.9   243  32.2  22.1  66.1   29.60     8
2017-11-22 17:18   8.6  10.7   258  32.4  22.9  67.7   29.60     9
2017-11-22 17:16   8.0   9.7   259  32.5  23.4  68.7   29.60    11
2017-11-22 17:14   7.0   9.5   242  32.4  22.8  67.4   29.60    14
2017-11-22 17:12   6.2   7.2   257  32.4  22.7  67.1   29.60    16
2017-11-22 17:10   7.2   8.7   268  32.2  22.6  67.5   29.60    20
2017-11-22 17:08   6.6   8.7   274  32.2  22.2  66.3   29.60    23
2017-11-22 17:06   5.1   6.4   270  32.2  22.4  66.9   29.60    27
2017-11-22 17:04   6.6   7.8   271  32.4  22.8  67.5   29.60    31
2017-11-22 17:02   8.7  10.1   270  32.4  22.9  67.9   29.60    34
2017-11-22 17:00   8.0  10.5   265  32.4  22.6  66.9   29.60    38
2017-11-22 16:58   8.6  10.7   266  32.5  23.4  68.8   29.60    44
2017-11-22 16:56   9.5  10.9   286  32.5  23.4  68.6   29.61    49
2017-11-22 16:54  10.1  11.5   283  32.5  23.4  68.6   29.61    55
2017-11-22 16:52   8.2  10.3   263  32.7  23.4  68.1   29.61    61
2017-11-22 16:50   9.9  12.4   266  32.7  23.8  69.4   29.61    65
2017-11-22 16:48   8.9  11.9   262  32.5  23.0  67.6   29.62    67
2017-11-22 16:46   6.4   8.0   265  32.5  23.0  67.5   29.62    67
2017-11-22 16:44   7.4   8.9   275  32.5  23.4  68.8   29.62    70
2017-11-22 16:42   9.9  11.9   277  32.7  23.6  68.8   29.62    76
2017-11-22 16:40  10.1  11.9   280  32.7  24.0  70.0   29.62    85
2017-11-22 16:38   9.3  11.3   284  32.4  22.9  67.7   29.62    96
2017-11-22 16:36   6.8   9.5   299  32.4  22.3  66.0   29.62   108
2017-11-22 16:34   8.2   9.5   295  32.5  23.1  67.8   29.62   118
2017-11-22 16:32   8.0  10.3   294  32.5  22.9  67.2   29.62   127
2017-11-22 16:30   7.2   9.5   290  32.5  22.8  66.9   29.62   134
2017-11-22 16:28   7.6   9.5   280  32.5  22.6  66.5   29.62   142
2017-11-22 16:26   8.4  11.1   286  32.5  22.5  66.2   29.62   146
2017-11-22 16:24   8.0   9.9   281  32.4  22.3  66.0   29.62   149
2017-11-22 16:22   6.2   7.2   280  32.4  22.1  65.5   29.62   151
2017-11-22 16:20   9.3  10.9   272  32.5  22.5  66.3   29.62   152
2017-11-22 16:18  11.1  12.6   272  32.7  23.0  67.2   29.62   157
2017-11-22 16:16   9.9  11.9   281  32.7  23.1  67.4   29.62   165
2017-11-22 16:14   8.4  10.9   279  32.9  23.0  66.6   29.62   177
2017-11-22 16:12  10.9  12.2   282  32.9  23.3  67.5   29.62   181
2017-11-22 16:10  11.5  13.2   281  32.7  23.0  67.1   29.62   174
2017-11-22 16:08   9.5  10.3   289  32.7  22.7  66.2   29.62   171
2017-11-22 16:06  11.1  13.0   282  32.7  22.3  65.1   29.62   175
2017-11-22 16:04  10.1  11.9   270  32.9  22.0  64.0   29.62   185
2017-11-22 16:02  10.7  11.9   271  33.1  22.7  65.2   29.62   202
2017-11-22 16:00   7.6   8.7   270  33.3  22.7  64.8   29.63   263
2017-11-22 15:58   9.3  10.5   272  33.4  23.8  67.4   29.63   344
2017-11-22 15:56  10.1  12.1   291  33.3  23.9  68.3   29.62   671
2017-11-22 15:54   7.6   9.1   295  32.9  23.0  66.5   29.63   287
2017-11-22 15:52   8.9  10.7   295  33.1  23.3  67.0   29.63   185
2017-11-22 15:50  11.1  12.8   293  33.3  23.3  66.5   29.63   201
2017-11-22 15:48  10.1  11.9   289  33.4  23.8  67.4   29.63   236
2017-11-22 15:46  11.5  12.4   285  33.3  23.4  66.8   29.63   290
2017-11-22 15:44  12.8  14.4   286  33.3  23.9  68.1   29.63   520
2017-11-22 15:42  12.8  15.4   292  33.3  23.5  67.1   29.62   245
2017-11-22 15:40  10.3  11.9   293  33.4  23.8  67.4   29.62   222
2017-11-22 15:38  10.3  12.1   277  33.4  24.6  69.6   29.63   225
2017-11-22 15:36  10.1  12.2   281  33.3  23.8  67.8   29.63   210
2017-11-22 15:34  10.1  11.7   287  32.9  23.2  67.1   29.63   199
2017-11-22 15:32   8.9  11.3   295  32.7  23.2  67.6   29.63   191
2017-11-22 15:30   7.4   8.4   275  32.7  22.5  65.7   29.62   191